Time;durP1;ratioP1;P1;durP2;ratioP2;P2;SDS_P1;SDS_P2;PMS_P1;PMS_P2;Temp;Humidity;BMP_temperature;BMP_pressure;BME280_temperature;BME280_humidity;BME280_pressure;Samples;Min_cycle;Max_cycle;Signal;HPM_P1;HPM_P2
2023/05/28 00:00:56;;;;;;;33.90;16.05;;;14.50;99.90;;;;;;5045967;28;36314;-89
2023/05/28 00:03:23;;;;;;;42.67;17.20;;;14.40;99.90;;;;;;5058320;28;38420;-89
2023/05/28 00:05:50;;;;;;;34.60;16.15;;;14.40;99.90;;;;;;5053112;28;37723;-88
2023/05/28 00:08:16;;;;;;;36.75;16.95;;;14.30;99.90;;;;;;5053404;28;39434;-90
2023/05/28 00:10:42;;;;;;;36.08;15.80;;;14.30;99.90;;;;;;5053472;28;37501;-87
2023/05/28 00:13:09;;;;;;;37.50;16.25;;;14.20;99.90;;;;;;5055118;28;38726;-88
2023/05/28 00:15:36;;;;;;;34.72;14.85;;;14.20;99.90;;;;;;5062396;28;37326;-86
2023/05/28 00:18:03;;;;;;;37.50;15.85;;;14.20;99.90;;;;;;5061190;28;37280;-87
2023/05/28 00:20:29;;;;;;;37.67;17.30;;;14.20;99.90;;;;;;5054942;28;35959;-87
2023/05/28 00:22:56;;;;;;;34.20;16.73;;;14.20;99.90;;;;;;5045903;28;37910;-88
2023/05/28 00:25:22;;;;;;;37.30;18.00;;;14.20;99.90;;;;;;5047879;28;37388;-88
2023/05/28 00:27:48;;;;;;;33.45;16.27;;;14.20;99.90;;;;;;5049322;28;36839;-87
2023/05/28 00:30:14;;;;;;;34.22;16.73;;;14.20;99.90;;;;;;5046279;28;36969;-89
2023/05/28 00:32:40;;;;;;;37.03;16.05;;;14.20;99.90;;;;;;5044315;28;37821;-89
2023/05/28 00:35:06;;;;;;;37.42;17.92;;;14.10;99.90;;;;;;5051525;28;38877;-86
2023/05/28 00:37:32;;;;;;;37.78;16.52;;;14.10;99.90;;;;;;5051344;28;36959;-87
2023/05/28 00:39:58;;;;;;;36.60;17.42;;;14.10;99.90;;;;;;5054187;28;36047;-87
2023/05/28 00:42:26;;;;;;;41.30;17.50;;;14.10;99.90;;;;;;5048094;28;37758;-87
2023/05/28 00:44:52;;;;;;;36.20;15.77;;;14.10;99.90;;;;;;5048531;28;37480;-87
2023/05/28 00:47:18;;;;;;;41.53;17.35;;;14.10;99.90;;;;;;5049563;28;36823;-87
2023/05/28 00:49:45;;;;;;;32.80;15.90;;;14.00;99.90;;;;;;5052686;28;36495;-87
2023/05/28 00:52:11;;;;;;;36.10;16.35;;;14.00;99.90;;;;;;5047767;28;37973;-86
2023/05/28 00:54:37;;;;;;;32.60;15.82;;;14.00;99.90;;;;;;5044051;28;38800;-85
2023/05/28 00:57:04;;;;;;;31.67;15.63;;;14.00;99.90;;;;;;5051060;28;38185;-87
2023/05/28 00:59:33;;;;;;;37.65;17.08;;;14.00;99.90;;;;;;5047769;28;38309;-86
2023/05/28 01:04:32;;;;;;;37.13;18.25;;;13.90;99.90;;;;;;4952827;28;20047;-79
2023/05/28 01:06:59;;;;;;;43.03;17.73;;;13.90;99.90;;;;;;4966153;28;38335;-81
2023/05/28 01:09:26;;;;;;;32.30;16.95;;;13.90;99.90;;;;;;4966616;28;36424;-81
2023/05/28 01:11:53;;;;;;;36.17;17.95;;;13.90;99.90;;;;;;4972160;28;39811;-80
2023/05/28 01:14:21;;;;;;;35.90;15.25;;;13.90;99.90;;;;;;4965136;28;37312;-81
2023/05/28 01:16:48;;;;;;;42.22;16.15;;;13.90;99.90;;;;;;4967264;28;38487;-80
2023/05/28 01:19:18;;;;;;;33.75;15.85;;;13.80;99.90;;;;;;4965089;28;37096;-81
2023/05/28 01:21:47;;;;;;;39.58;15.40;;;13.80;99.90;;;;;;4964113;28;39061;-78
2023/05/28 01:24:13;;;;;;;32.50;15.07;;;13.80;99.90;;;;;;4970246;28;38618;-80
2023/05/28 01:26:42;;;;;;;34.55;14.77;;;13.80;99.90;;;;;;4967710;28;38720;-79
2023/05/28 01:29:18;;;;;;;31.30;13.85;;;13.80;99.90;;;;;;4964819;28;36693;-80
2023/05/28 01:31:44;;;;;;;37.97;14.00;;;13.80;99.90;;;;;;4969633;28;38938;-81
2023/05/28 01:34:12;;;;;;;28.13;13.70;;;13.80;99.90;;;;;;4964765;28;38611;-80
2023/05/28 01:36:57;;;;;;;29.85;13.38;;;13.70;99.90;;;;;;4967871;28;38181;-80
2023/05/28 01:39:26;;;;;;;35.25;14.27;;;13.70;99.90;;;;;;4963526;28;36509;-80
2023/05/28 01:41:54;;;;;;;42.70;16.40;;;13.70;99.90;;;;;;4965173;28;39226;-79
2023/05/28 01:44:20;;;;;;;31.48;13.68;;;13.60;99.90;;;;;;4963929;28;38620;-79
2023/05/28 01:46:49;;;;;;;35.13;14.10;;;13.60;99.90;;;;;;4968423;28;39148;-79
2023/05/28 01:49:17;;;;;;;31.13;14.35;;;13.60;99.90;;;;;;4959613;28;37496;-78
2023/05/28 01:51:43;;;;;;;27.88;14.20;;;13.60;99.90;;;;;;4969407;28;39207;-82
2023/05/28 01:54:09;;;;;;;31.20;14.30;;;13.50;99.90;;;;;;4963103;28;37578;-78
2023/05/28 01:56:35;;;;;;;39.70;15.27;;;13.50;99.90;;;;;;4965233;28;37351;-79
2023/05/28 01:59:02;;;;;;;31.65;14.50;;;13.50;99.90;;;;;;4966197;28;36333;-78
2023/05/28 02:01:30;;;;;;;38.50;15.25;;;13.50;99.90;;;;;;4959410;28;39235;-79
2023/05/28 02:03:57;;;;;;;35.33;14.75;;;13.50;99.90;;;;;;4964732;28;38788;-80
2023/05/28 02:06:24;;;;;;;28.77;13.90;;;13.50;99.90;;;;;;4955918;28;38168;-79
2023/05/28 02:08:51;;;;;;;33.95;14.38;;;13.50;99.90;;;;;;4953691;28;38189;-79
2023/05/28 02:11:17;;;;;;;37.33;14.73;;;13.50;99.90;;;;;;4963790;28;39857;-79
2023/05/28 02:13:43;;;;;;;40.08;17.15;;;13.50;99.90;;;;;;4967148;28;37593;-79
2023/05/28 02:16:17;;;;;;;40.22;15.48;;;13.40;99.90;;;;;;4965392;28;37610;-79
2023/05/28 02:18:49;;;;;;;35.88;16.65;;;13.40;99.90;;;;;;4964999;28;36323;-79
2023/05/28 02:21:17;;;;;;;41.80;17.25;;;13.50;99.90;;;;;;4965834;28;37939;-79
2023/05/28 02:23:45;;;;;;;41.17;16.50;;;13.40;99.90;;;;;;4964407;28;38495;-79
2023/05/28 02:26:11;;;;;;;38.33;15.73;;;13.40;99.90;;;;;;4961329;28;37176;-75
2023/05/28 02:28:38;;;;;;;34.25;15.05;;;13.40;99.90;;;;;;4957495;28;37262;-77
2023/05/28 02:31:04;;;;;;;31.13;15.20;;;13.30;99.90;;;;;;4963995;28;38043;-77
2023/05/28 02:33:32;;;;;;;40.70;17.50;;;13.30;99.90;;;;;;4966170;28;39563;-77
2023/05/28 02:35:58;;;;;;;35.72;14.63;;;13.30;99.90;;;;;;4958620;28;38445;-77
2023/05/28 02:38:24;;;;;;;34.38;15.77;;;13.30;99.90;;;;;;4962796;28;36364;-78
2023/05/28 02:40:50;;;;;;;36.88;15.90;;;13.30;99.90;;;;;;4960276;28;38771;-77
2023/05/28 02:43:16;;;;;;;32.35;15.60;;;13.30;99.90;;;;;;4961641;28;38285;-76
2023/05/28 02:45:42;;;;;;;38.55;16.67;;;13.30;99.90;;;;;;4979782;28;39356;-76
2023/05/28 02:48:08;;;;;;;41.35;15.63;;;13.20;99.90;;;;;;4962015;28;37109;-79
2023/05/28 02:50:34;;;;;;;35.58;16.42;;;13.20;99.90;;;;;;4957653;28;39428;-77
2023/05/28 02:53:02;;;;;;;43.15;16.50;;;13.20;99.90;;;;;;4959135;28;38575;-77
2023/05/28 02:55:29;;;;;;;34.55;15.23;;;13.10;99.90;;;;;;4976823;28;46932;-78
2023/05/28 02:57:55;;;;;;;35.90;17.05;;;13.10;99.90;;;;;;4976830;28;36503;-78
2023/05/28 03:00:21;;;;;;;38.88;16.52;;;13.10;99.90;;;;;;4975739;28;37650;-77
2023/05/28 03:02:47;;;;;;;31.30;15.10;;;13.30;99.90;;;;;;4962141;28;47552;-78
2023/05/28 03:05:14;;;;;;;37.40;16.90;;;13.20;99.90;;;;;;4957819;28;37796;-78
2023/05/28 03:07:40;;;;;;;38.30;14.98;;;13.20;99.90;;;;;;4961602;28;37449;-78
2023/05/28 03:10:07;;;;;;;28.40;14.80;;;13.10;99.90;;;;;;4977712;28;37771;-78
2023/05/28 03:12:33;;;;;;;33.22;15.15;;;13.00;99.90;;;;;;4963663;28;38104;-78
2023/05/28 03:14:59;;;;;;;35.60;16.00;;;13.00;99.90;;;;;;4983286;28;37510;-78
2023/05/28 03:17:25;;;;;;;40.10;17.25;;;13.00;99.90;;;;;;4973524;28;37519;-77
2023/05/28 03:19:51;;;;;;;30.63;15.68;;;13.00;99.90;;;;;;4968753;28;39674;-78
2023/05/28 03:22:18;;;;;;;40.05;17.10;;;13.00;99.90;;;;;;4967342;28;36943;-76
2023/05/28 03:24:44;;;;;;;34.95;16.10;;;12.90;99.90;;;;;;4975007;28;37665;-75
2023/05/28 03:27:10;;;;;;;33.25;15.73;;;12.90;99.90;;;;;;4989314;28;36304;-76
2023/05/28 03:29:36;;;;;;;37.47;17.10;;;12.90;99.90;;;;;;4983625;28;38510;-76
2023/05/28 03:32:03;;;;;;;35.67;17.35;;;12.90;99.90;;;;;;4960985;28;38747;-76
2023/05/28 03:34:29;;;;;;;31.70;16.75;;;12.90;99.90;;;;;;4964543;28;37639;-75
2023/05/28 03:36:55;;;;;;;34.95;15.93;;;12.90;99.90;;;;;;4966294;28;38480;-76
2023/05/28 03:39:21;;;;;;;38.45;16.20;;;12.90;99.90;;;;;;4966462;28;39124;-77
2023/05/28 03:41:48;;;;;;;39.03;15.88;;;12.90;99.90;;;;;;4965676;28;37352;-76
2023/05/28 03:44:17;;;;;;;45.65;18.48;;;12.90;99.90;;;;;;4975287;28;37128;-76
2023/05/28 03:46:43;;;;;;;35.13;16.00;;;12.80;99.90;;;;;;4966393;28;37564;-76
2023/05/28 03:49:09;;;;;;;35.65;16.30;;;12.90;99.90;;;;;;4965049;28;39781;-75
2023/05/28 03:51:36;;;;;;;42.15;16.08;;;12.80;99.90;;;;;;4962768;28;38406;-75
2023/05/28 03:54:02;;;;;;;36.65;15.95;;;12.80;99.90;;;;;;4967561;28;38506;-75
2023/05/28 03:56:29;;;;;;;30.70;16.58;;;12.80;99.90;;;;;;4970207;28;38236;-75
2023/05/28 03:58:55;;;;;;;42.67;17.80;;;12.70;99.90;;;;;;4967848;28;38880;-75
2023/05/28 04:01:21;;;;;;;41.80;17.45;;;12.70;99.90;;;;;;4966969;28;38342;-75
2023/05/28 04:03:47;;;;;;;35.45;15.80;;;12.80;99.90;;;;;;4969862;28;38506;-74
2023/05/28 04:06:14;;;;;;;39.08;15.85;;;12.70;99.90;;;;;;4969427;28;37759;-75
2023/05/28 04:08:40;;;;;;;30.92;15.02;;;12.70;99.90;;;;;;4974218;28;39468;-75
2023/05/28 04:11:06;;;;;;;38.83;15.88;;;12.70;99.90;;;;;;4965621;28;37645;-76
2023/05/28 04:13:32;;;;;;;37.53;15.85;;;12.70;99.90;;;;;;4970177;28;38665;-76
2023/05/28 04:15:59;;;;;;;34.05;15.30;;;12.70;99.90;;;;;;4981467;28;36156;-75
2023/05/28 04:18:25;;;;;;;34.97;13.82;;;12.70;99.90;;;;;;4966906;28;38092;-75
2023/05/28 04:20:51;;;;;;;35.47;15.55;;;12.70;99.90;;;;;;4968489;28;37460;-76
2023/05/28 04:23:17;;;;;;;34.25;15.20;;;12.80;99.90;;;;;;4967935;28;38285;-76
2023/05/28 04:25:43;;;;;;;43.55;16.23;;;12.80;99.90;;;;;;4967589;28;36711;-76
2023/05/28 04:28:11;;;;;;;35.63;14.90;;;12.80;99.90;;;;;;4966816;28;39316;-76
2023/05/28 04:30:37;;;;;;;31.45;14.43;;;12.80;99.90;;;;;;4966667;28;37775;-76
2023/05/28 04:33:03;;;;;;;33.15;13.98;;;12.80;99.90;;;;;;4963235;28;38208;-75
2023/05/28 04:35:29;;;;;;;34.80;16.20;;;12.80;99.90;;;;;;4960643;28;37500;-76
2023/05/28 04:37:55;;;;;;;29.70;13.48;;;12.90;99.90;;;;;;4981816;28;37866;-76
2023/05/28 04:40:21;;;;;;;30.63;13.60;;;12.90;99.90;;;;;;4963209;28;38838;-76
2023/05/28 04:42:47;;;;;;;28.35;14.25;;;12.90;99.90;;;;;;4969238;28;37973;-76
2023/05/28 04:45:14;;;;;;;33.47;15.73;;;12.90;99.90;;;;;;4970095;28;37714;-76
2023/05/28 04:47:40;;;;;;;28.20;12.75;;;13.00;99.90;;;;;;4967826;28;38983;-76
2023/05/28 04:50:07;;;;;;;30.70;13.52;;;13.10;99.90;;;;;;4956339;28;38285;-76
2023/05/28 04:52:35;;;;;;;26.27;12.88;;;13.10;99.90;;;;;;4971040;28;38962;-76
2023/05/28 04:55:03;;;;;;;32.88;13.65;;;13.20;99.90;;;;;;4965371;28;38040;-77
2023/05/28 04:57:30;;;;;;;29.40;12.75;;;13.30;99.90;;;;;;4963332;28;47987;-76
2023/05/28 04:59:56;;;;;;;31.25;13.63;;;13.30;99.90;;;;;;4971893;28;38127;-76
2023/05/28 05:02:23;;;;;;;24.48;12.73;;;13.30;99.90;;;;;;4965139;28;38974;-76
2023/05/28 05:04:49;;;;;;;26.30;12.80;;;13.40;99.90;;;;;;4966290;28;36429;-77
2023/05/28 05:07:17;;;;;;;25.33;13.27;;;13.50;99.90;;;;;;4972578;28;41293;-77
2023/05/28 05:09:43;;;;;;;32.15;13.38;;;13.60;99.90;;;;;;4968233;28;38956;-76
2023/05/28 05:12:09;;;;;;;25.02;11.73;;;13.80;99.90;;;;;;4962956;28;38327;-76
2023/05/28 05:14:35;;;;;;;22.95;11.30;;;14.00;99.90;;;;;;4966168;28;36089;-78
2023/05/28 05:17:08;;;;;;;21.50;12.27;;;14.20;99.90;;;;;;4963108;28;38007;-77
2023/05/28 05:19:35;;;;;;;;;;;14.40;99.90;;;;;;4961893;28;38673;-79
2023/05/28 05:22:01;;;;;;;27.88;10.85;;;14.70;99.90;;;;;;4969276;28;38537;-77
2023/05/28 05:24:27;;;;;;;25.95;11.65;;;14.80;99.90;;;;;;4966814;28;47400;-78
2023/05/28 05:26:53;;;;;;;26.27;10.70;;;15.10;99.90;;;;;;4957864;28;38907;-79
2023/05/28 05:29:19;;;;;;;21.42;10.32;;;15.20;99.90;;;;;;4980674;28;38649;-79
2023/05/28 05:31:45;;;;;;;22.48;9.30;;;15.30;99.90;;;;;;4971115;28;37264;-78
2023/05/28 05:34:11;;;;;;;24.42;10.05;;;15.30;99.90;;;;;;4965054;28;37358;-79
2023/05/28 05:36:37;;;;;;;18.30;8.60;;;15.20;99.90;;;;;;4964130;28;38615;-79
2023/05/28 05:39:03;;;;;;;19.33;8.98;;;15.10;99.90;;;;;;4970254;28;38145;-78
2023/05/28 05:41:30;;;;;;;23.48;10.00;;;15.00;99.90;;;;;;4981003;28;39142;-79
2023/05/28 05:43:56;;;;;;;17.25;9.00;;;15.10;99.90;;;;;;4976401;28;37348;-79
2023/05/28 05:46:22;;;;;;;21.58;8.82;;;15.40;99.90;;;;;;4974452;28;38930;-79
2023/05/28 05:48:48;;;;;;;22.33;9.50;;;15.60;99.90;;;;;;4962387;28;38282;-80
2023/05/28 05:51:18;;;;;;;22.63;9.13;;;15.70;99.90;;;;;;4965857;28;37213;-78
2023/05/28 05:53:44;;;;;;;20.17;8.32;;;15.90;99.90;;;;;;4967170;28;36198;-80
2023/05/28 05:56:11;;;;;;;20.00;8.38;;;16.20;99.90;;;;;;4971592;28;39560;-80
2023/05/28 05:58:37;;;;;;;20.65;8.05;;;16.50;99.90;;;;;;4964893;28;39063;-79
2023/05/28 06:01:05;;;;;;;17.92;7.53;;;16.50;99.90;;;;;;4956095;28;37143;-78
2023/05/28 06:03:31;;;;;;;15.18;7.40;;;16.60;99.90;;;;;;4960778;28;36208;-78
2023/05/28 06:05:57;;;;;;;19.52;8.65;;;16.80;99.90;;;;;;4959038;28;36935;-79
2023/05/28 06:08:23;;;;;;;18.75;7.55;;;17.00;99.90;;;;;;4966185;28;37994;-78
2023/05/28 06:10:49;;;;;;;26.90;9.07;;;17.20;99.90;;;;;;4966980;28;37204;-79
2023/05/28 06:13:15;;;;;;;20.65;8.18;;;17.50;99.90;;;;;;4982352;28;36264;-76
2023/05/28 06:15:41;;;;;;;16.15;7.80;;;17.60;98.70;;;;;;4967308;28;38942;-76
2023/05/28 06:18:08;;;;;;;15.32;7.85;;;17.70;99.50;;;;;;4963745;28;37380;-76
2023/05/28 06:20:34;;;;;;;19.80;8.27;;;17.70;93.40;;;;;;4965759;28;38142;-77
2023/05/28 06:23:01;;;;;;;16.08;7.18;;;17.80;96.40;;;;;;4971196;28;36292;-76
2023/05/28 06:25:28;;;;;;;14.75;7.25;;;18.00;92.80;;;;;;4964600;28;47123;-77
2023/05/28 06:27:54;;;;;;;21.90;8.13;;;18.20;90.10;;;;;;4968766;28;37229;-76
2023/05/28 06:30:20;;;;;;;15.48;7.03;;;18.20;84.10;;;;;;4966070;28;37139;-76
2023/05/28 06:32:46;;;;;;;16.35;7.50;;;18.20;88.60;;;;;;4958898;28;36932;-75
2023/05/28 06:35:13;;;;;;;19.05;7.38;;;18.20;92.50;;;;;;4974471;28;38708;-76
2023/05/28 06:37:40;;;;;;;17.33;7.90;;;18.40;83.20;;;;;;4966439;28;20055;-76
2023/05/28 06:40:10;;;;;;;16.73;6.85;;;18.50;80.90;;;;;;4968415;28;38693;-75
2023/05/28 06:42:39;;;;;;;17.05;7.13;;;18.60;76.40;;;;;;4963368;28;36321;-75
2023/05/28 06:45:06;;;;;;;19.90;6.85;;;18.70;74.20;;;;;;4959910;28;38601;-76
2023/05/28 06:47:32;;;;;;;20.02;7.05;;;18.60;67.30;;;;;;4963357;28;38667;-76
2023/05/28 06:49:58;;;;;;;12.25;6.47;;;18.70;70.40;;;;;;4962103;28;37882;-77
2023/05/28 06:52:24;;;;;;;16.92;6.55;;;18.70;85.00;;;;;;4959700;28;38069;-76
2023/05/28 06:54:50;;;;;;;17.60;6.90;;;18.90;74.60;;;;;;4973007;28;37756;-77
2023/05/28 06:57:17;;;;;;;14.98;6.70;;;19.30;60.60;;;;;;4969024;28;37942;-76
2023/05/28 06:59:43;;;;;;;13.98;6.97;;;19.40;58.70;;;;;;4965794;28;37948;-78
2023/05/28 07:02:09;;;;;;;14.07;6.70;;;19.60;61.70;;;;;;4961982;28;36109;-75
2023/05/28 07:04:35;;;;;;;17.10;7.00;;;19.60;47.40;;;;;;4973579;28;38120;-75
2023/05/28 07:07:01;;;;;;;15.55;6.93;;;19.50;53.20;;;;;;4966883;28;37306;-79
2023/05/28 07:09:28;;;;;;;21.58;8.00;;;19.30;40.50;;;;;;4959025;28;48602;-80
2023/05/28 07:11:54;;;;;;;14.27;6.90;;;19.40;52.50;;;;;;4962098;28;37332;-79
2023/05/28 07:14:21;;;;;;;18.63;8.23;;;19.50;55.30;;;;;;4963573;28;37427;-81
2023/05/28 07:16:47;;;;;;;20.52;7.70;;;19.70;52.20;;;;;;4963421;28;39110;-79
2023/05/28 07:19:13;;;;;;;15.40;6.97;;;19.80;51.80;;;;;;4961638;28;36851;-78
2023/05/28 07:21:39;;;;;;;16.73;7.32;;;19.90;39.10;;;;;;4974190;28;37477;-78
2023/05/28 07:24:05;;;;;;;13.10;6.50;;;19.90;30.20;;;;;;4959509;28;38806;-76
2023/05/28 07:26:35;;;;;;;17.95;6.47;;;19.70;36.30;;;;;;4963553;28;37455;-78
2023/05/28 07:29:01;;;;;;;14.10;6.15;;;19.70;46.10;;;;;;4967835;28;37444;-81
2023/05/28 07:31:28;;;;;;;12.77;5.88;;;19.90;42.50;;;;;;4961489;28;46885;-80
2023/05/28 07:33:54;;;;;;;14.10;6.30;;;20.10;33.70;;;;;;4981790;28;38916;-79
2023/05/28 07:36:20;;;;;;;18.20;6.80;;;20.30;34.70;;;;;;4965727;28;38038;-81
2023/05/28 07:38:46;;;;;;;17.25;6.97;;;20.40;27.80;;;;;;4963925;28;38576;-79
2023/05/28 07:41:12;;;;;;;13.95;6.18;;;20.50;41.10;;;;;;4967658;28;36911;-80
2023/05/28 07:43:39;;;;;;;16.33;6.25;;;20.80;33.30;;;;;;4980576;28;37935;-81
2023/05/28 07:46:05;;;;;;;15.77;6.63;;;21.00;14.80;;;;;;4961967;28;38518;-83
2023/05/28 07:48:31;;;;;;;11.77;6.10;;;21.30;15.00;;;;;;4964605;28;36879;-81
2023/05/28 07:50:57;;;;;;;15.90;5.93;;;21.10;23.90;;;;;;4964195;28;37051;-82
2023/05/28 07:53:23;;;;;;;14.63;5.70;;;21.20;10.60;;;;;;4961274;28;39271;-82
2023/05/28 07:55:49;;;;;;;14.52;6.07;;;21.30;1.00;;;;;;4958887;28;38549;-81
2023/05/28 07:58:15;;;;;;;14.68;6.10;;;21.10;1.00;;;;;;4952520;28;38292;-85
2023/05/28 08:00:42;;;;;;;13.52;5.30;;;21.10;1.00;;;;;;4968304;28;37358;-85
2023/05/28 08:03:11;;;;;;;18.83;6.47;;;20.80;1.00;;;;;;4982560;28;38935;-86
2023/05/28 08:05:37;;;;;;;14.80;5.97;;;20.70;1.00;;;;;;4965997;28;37510;-83
2023/05/28 08:08:03;;;;;;;14.25;6.50;;;20.80;1.00;;;;;;4958617;28;38198;-78
2023/05/28 08:10:29;;;;;;;13.98;5.53;;;21.00;1.00;;;;;;4980339;28;36634;-83
2023/05/28 08:12:55;;;;;;;15.93;6.95;;;21.20;1.00;;;;;;4978827;28;36043;-81
2023/05/28 08:15:22;;;;;;;10.95;5.45;;;21.20;1.00;;;;;;4971008;28;38506;-82
2023/05/28 08:17:50;;;;;;;14.02;5.72;;;21.30;1.00;;;;;;4965944;28;36818;-84
2023/05/28 08:20:17;;;;;;;11.23;5.47;;;21.10;1.00;;;;;;4964381;28;35770;-83
2023/05/28 08:22:43;;;;;;;15.30;5.85;;;21.10;1.00;;;;;;4963455;28;39113;-85
2023/05/28 08:25:10;;;;;;;14.52;5.53;;;21.30;1.00;;;;;;4958959;28;38382;-80
2023/05/28 08:27:36;;;;;;;14.15;5.30;;;21.50;1.00;;;;;;4947304;28;37080;-84
2023/05/28 08:30:03;;;;;;;14.98;6.07;;;22.00;1.00;;;;;;4967311;28;37404;-84
2023/05/28 08:32:30;;;;;;;13.45;5.35;;;22.10;1.00;;;;;;4965223;28;39461;-83
2023/05/28 08:34:56;;;;;;;18.25;5.55;;;22.10;1.00;;;;;;4964181;28;37236;-85
2023/05/28 08:37:22;;;;;;;15.18;6.05;;;21.80;1.00;;;;;;4962421;28;36982;-83
2023/05/28 08:39:48;;;;;;;15.38;5.95;;;21.70;1.00;;;;;;4974363;28;36137;-84
2023/05/28 08:42:15;;;;;;;14.05;5.47;;;21.70;1.00;;;;;;4972610;28;37564;-83
2023/05/28 08:44:41;;;;;;;13.73;5.78;;;22.10;1.00;;;;;;4975967;28;38138;-84
2023/05/28 08:47:08;;;;;;;12.20;5.50;;;22.30;50.20;;;;;;4963002;28;40073;-82
2023/05/28 08:49:45;;;;;;;12.15;4.93;;;22.30;1.00;;;;;;4971357;28;36846;-83
2023/05/28 08:52:29;;;;;;;15.35;6.50;;;22.30;99.90;;;;;;4951412;28;38198;-83
2023/05/28 08:54:55;;;;;;;12.95;5.70;;;22.20;1.00;;;;;;4960224;28;37225;-82
2023/05/28 08:57:21;;;;;;;16.67;6.03;;;22.10;1.00;;;;;;4962041;28;38138;-82
2023/05/28 08:59:47;;;;;;;13.48;5.88;;;22.00;1.00;;;;;;4965688;28;36076;-83
2023/05/28 09:02:14;;;;;;;14.93;5.38;;;22.00;99.90;;;;;;4959594;28;38548;-85
2023/05/28 09:04:41;;;;;;;14.10;5.72;;;22.10;99.90;;;;;;4958673;28;38831;-83
2023/05/28 09:07:07;;;;;;;17.83;5.88;;;22.60;99.90;;;;;;4952532;28;37220;-86
2023/05/28 09:09:34;;;;;;;15.88;5.68;;;22.80;99.90;;;;;;4958092;28;37123;-85
2023/05/28 09:12:07;;;;;;;12.55;5.18;;;22.90;1.00;;;;;;4978838;28;37541;-85
2023/05/28 09:14:41;;;;;;;17.52;6.18;;;23.00;1.00;;;;;;4956593;28;48763;-84
2023/05/28 09:17:13;;;;;;;13.20;4.97;;;23.00;99.90;;;;;;4960377;28;38176;-85
2023/05/28 09:19:49;;;;;;;15.77;5.38;;;22.70;99.90;;;;;;4962312;28;36109;-85
2023/05/28 09:22:15;;;;;;;12.70;5.13;;;22.40;1.00;;;;;;4965450;28;37805;-85
2023/05/28 09:24:41;;;;;;;11.80;4.30;;;22.30;96.80;;;;;;4961836;28;36588;-86
2023/05/28 09:27:08;;;;;;;14.30;5.57;;;22.40;1.00;;;;;;4958503;28;38957;-84
2023/05/28 09:29:34;;;;;;;12.93;5.43;;;22.30;1.00;;;;;;4958002;28;36024;-85
2023/05/28 09:32:01;;;;;;;13.18;5.07;;;22.20;99.90;;;;;;4961821;28;39350;-85
2023/05/28 09:34:28;;;;;;;12.73;5.28;;;22.40;1.00;;;;;;4976090;28;47233;-85
2023/05/28 09:37:16;;;;;;;10.55;5.05;;;22.40;1.00;;;;;;4962174;28;38673;-85
2023/05/28 09:39:43;;;;;;;12.65;5.30;;;22.50;1.00;;;;;;4963023;28;47358;-84
2023/05/28 09:42:10;;;;;;;12.95;4.80;;;22.50;1.00;;;;;;4964271;28;38797;-84
2023/05/28 09:44:38;;;;;;;13.50;5.35;;;22.30;99.90;;;;;;4963268;28;37745;-84
2023/05/28 09:47:17;;;;;;;14.48;5.45;;;22.20;1.00;;;;;;4963754;28;38075;-87
2023/05/28 09:49:45;;;;;;;14.70;5.22;;;22.00;1.00;;;;;;4966052;28;37760;-89
2023/05/28 09:52:22;;;;;;;13.75;5.10;;;21.90;99.90;;;;;;4960680;28;37878;-89
2023/05/28 09:54:55;;;;;;;14.13;5.10;;;21.80;1.00;;;;;;4966892;28;38317;-88
2023/05/28 09:57:29;;;;;;;14.82;5.68;;;21.70;1.00;;;;;;4954251;28;38652;-87
2023/05/28 09:59:56;;;;;;;15.45;5.32;;;21.50;1.00;;;;;;4972463;28;37136;-86
2023/05/28 10:02:55;;;;;;;15.27;6.38;;;21.50;1.00;;;;;;4956632;28;38405;-82
2023/05/28 10:05:23;;;;;;;13.50;5.97;;;21.50;1.00;;;;;;4956220;28;37420;-85
2023/05/28 10:07:53;;;;;;;13.95;5.85;;;21.40;1.00;;;;;;4950099;28;36725;-85
2023/05/28 10:10:20;;;;;;;13.85;5.03;;;21.60;1.00;;;;;;4955234;28;36254;-83
2023/05/28 10:12:49;;;;;;;18.33;5.07;;;21.80;99.90;;;;;;4957798;28;38034;-82
2023/05/28 10:15:17;;;;;;;13.90;5.10;;;22.00;99.90;;;;;;4949966;28;37486;-83
2023/05/28 10:17:43;;;;;;;14.80;4.90;;;22.30;99.90;;;;;;4957952;28;35434;-81
2023/05/28 10:20:10;;;;;;;10.75;4.50;;;22.20;99.90;;;;;;4964148;28;37090;-82
2023/05/28 10:22:39;;;;;;;15.63;5.70;;;22.10;20.70;;;;;;4957513;28;39050;-83
2023/05/28 10:25:09;;;;;;;12.18;4.70;;;22.20;1.00;;;;;;4955023;28;38653;-81
2023/05/28 10:27:42;;;;;;;11.70;5.07;;;22.40;1.00;;;;;;4958915;28;38183;-84
2023/05/28 10:30:09;;;;;;;17.50;5.05;;;22.60;1.00;;;;;;4969541;28;39195;-87
2023/05/28 10:32:42;;;;;;;16.00;5.43;;;22.60;1.00;;;;;;4960921;28;39751;-87
2023/05/28 10:35:12;;;;;;;12.75;4.72;;;22.70;1.00;;;;;;4974148;28;37483;-83
2023/05/28 10:37:39;;;;;;;15.45;5.00;;;22.60;1.00;;;;;;4953839;28;37331;-86
2023/05/28 10:40:22;;;;;;;10.90;4.47;;;22.80;21.10;;;;;;4952553;28;37040;-82
2023/05/28 10:42:48;;;;;;;13.40;4.65;;;23.30;99.90;;;;;;4969435;28;38727;-85
2023/05/28 10:45:14;;;;;;;16.23;4.97;;;23.30;99.90;;;;;;4969200;28;38182;-87
2023/05/28 10:47:50;;;;;;;14.27;5.22;;;23.40;62.10;;;;;;4957975;28;38216;-85
2023/05/28 10:50:17;;;;;;;12.07;4.95;;;23.50;1.00;;;;;;4955590;28;36290;-85
2023/05/28 10:53:03;;;;;;;14.50;5.40;;;23.40;1.00;;;;;;4952451;28;39236;-84
2023/05/28 10:55:45;;;;;;;13.43;5.25;;;23.50;99.90;;;;;;4950284;28;47793;-83
2023/05/28 10:58:13;;;;;;;10.43;4.65;;;23.20;12.50;;;;;;4957434;28;36961;-86
2023/05/28 11:00:42;;;;;;;15.23;5.28;;;23.20;1.00;;;;;;4959345;28;37127;-89
2023/05/28 11:03:08;;;;;;;14.43;5.40;;;22.80;1.00;;;;;;4962946;28;38781;-88
2023/05/28 11:05:35;;;;;;;10.95;4.85;;;22.90;99.90;;;;;;4964083;28;37269;-86
2023/05/28 11:08:02;;;;;;;15.32;5.07;;;22.80;1.00;;;;;;4973741;28;39514;-83
2023/05/28 11:10:28;;;;;;;7.88;4.00;;;22.70;1.00;;;;;;4963689;28;36908;-88
2023/05/28 11:12:55;;;;;;;13.18;4.80;;;22.90;1.00;;;;;;4966113;28;37468;-89
2023/05/28 11:15:21;;;;;;;10.82;4.90;;;23.00;99.90;;;;;;4961688;28;38532;-89
2023/05/28 11:17:49;;;;;;;9.07;4.57;;;22.90;1.00;;;;;;4977142;28;38662;-88
2023/05/28 11:20:19;;;;;;;13.57;5.13;;;23.20;99.90;;;;;;4964289;28;36487;-87
2023/05/28 11:22:45;;;;;;;9.23;4.28;;;23.50;99.90;;;;;;4985887;28;38119;-87
2023/05/28 11:25:12;;;;;;;13.60;4.90;;;23.60;99.90;;;;;;4962074;28;38309;-86
2023/05/28 11:27:40;;;;;;;14.95;5.28;;;23.80;1.00;;;;;;4959797;28;37143;-83
2023/05/28 11:30:11;;;;;;;13.65;4.63;;;23.80;1.00;;;;;;4960207;28;38238;-86
2023/05/28 11:32:38;;;;;;;14.15;5.15;;;23.80;1.00;;;;;;4965043;28;38002;-84
2023/05/28 11:35:04;;;;;;;13.65;5.32;;;23.70;1.00;;;;;;4964107;28;37738;-83
2023/05/28 11:37:33;;;;;;;12.20;5.13;;;23.60;1.00;;;;;;4972345;28;45979;-83
2023/05/28 11:40:09;;;;;;;9.05;4.10;;;23.60;1.00;;;;;;4955883;28;38310;-81
2023/05/28 11:42:39;;;;;;;13.25;5.18;;;23.50;1.00;;;;;;4963128;28;48470;-84
2023/05/28 11:45:06;;;;;;;14.02;4.80;;;23.40;1.00;;;;;;4959192;28;38132;-84
2023/05/28 11:47:36;;;;;;;10.13;4.18;;;23.30;99.90;;;;;;4964038;28;48883;-86
2023/05/28 11:50:18;;;;;;;14.65;5.15;;;23.10;1.00;;;;;;4957598;28;36197;-87
2023/05/28 11:52:45;;;;;;;12.35;4.63;;;23.10;1.00;;;;;;4960293;28;48979;-87
2023/05/28 11:55:14;;;;;;;12.27;4.80;;;23.30;1.00;;;;;;4963287;28;37543;-86
2023/05/28 11:57:55;;;;;;;9.57;4.43;;;23.50;1.00;;;;;;4960790;28;36865;-86
2023/05/28 12:00:31;;;;;;;11.55;4.40;;;23.70;99.90;;;;;;4962725;28;36273;-90
2023/05/28 12:02:58;;;;;;;14.07;4.68;;;23.80;1.00;;;;;;4980216;28;38541;-85
2023/05/28 12:05:24;;;;;;;12.73;5.28;;;24.00;99.90;;;;;;4962153;28;37735;-91
2023/05/28 12:07:52;;;;;;;9.25;4.60;;;23.80;99.90;;;;;;4961553;28;38954;-84
2023/05/28 12:10:20;;;;;;;12.65;4.85;;;23.90;1.00;;;;;;4958217;28;36340;-84
2023/05/28 12:12:48;;;;;;;11.75;4.95;;;24.10;24.30;;;;;;4961372;28;39223;-83
2023/05/28 12:15:15;;;;;;;12.00;4.35;;;24.40;99.90;;;;;;4967027;28;37965;-82
2023/05/28 12:17:46;;;;;;;11.77;4.25;;;24.70;99.90;;;;;;4957683;28;37245;-81
2023/05/28 12:20:12;;;;;;;10.55;4.47;;;24.80;99.90;;;;;;4970198;28;36236;-83
2023/05/28 12:22:42;;;;;;;8.45;3.78;;;24.60;1.00;;;;;;4969943;28;38162;-84
2023/05/28 12:25:09;;;;;;;17.85;5.45;;;25.00;1.00;;;;;;4964064;28;38381;-83
2023/05/28 12:27:36;;;;;;;12.65;4.78;;;24.80;1.00;;;;;;4964350;28;37464;-84
2023/05/28 12:30:03;;;;;;;15.10;4.57;;;24.80;1.00;;;;;;4961279;28;36103;-83
2023/05/28 12:32:29;;;;;;;11.85;4.68;;;24.80;1.00;;;;;;4977632;28;38214;-82
2023/05/28 12:34:56;;;;;;;11.10;4.40;;;24.70;1.00;;;;;;4959653;28;37653;-87
2023/05/28 12:37:23;;;;;;;15.80;5.18;;;24.50;1.00;;;;;;4964703;28;40054;-85
2023/05/28 12:39:52;;;;;;;9.05;4.57;;;24.20;1.00;;;;;;4966093;28;38400;-86